KIND/IND METAR and TAF weather

Enter ICAO airport designator
Station Type Date Time Source
KIND METAR 2020/11/25 22:26 UTC NOAA

KIND 252226Z VRB03KT 8SM -RA BKN005 OVC015 12/12 A2969 RMK AO2 P0009 T01220122


Station Type Date Time Source
KIND Decoded METAR 2020/11/25 22:26 UTC NOAA

INDIANAPOLIS INTERNATIONAL AIRPORT , IN, United States (KIND) 39-43N 86-17W 242M
Nov 25, 2020 - 05:26 PM EST / 2020.11.25 2226 UTC
Wind: Variable at 3 MPH (3 KT):0
Visibility: 8 mile(s):0
Sky conditions: overcast
Weather: light rain
Precipitation last hour: 0.09 inches
Temperature: 54.0 F (12.2 C)
Dew Point: 54.0 F (12.2 C)
Relative Humidity: 100%
Pressure (altimeter): 29.69 in. Hg (1005 hPa)
ob: KIND 252226Z VRB03KT 8SM -RA BKN005 OVC015 12/12 A2969 RMK AO2 P0009 T01220122
cycle: 22

Station Type Date Time Source
KIND TAF 2020/11/25 20:22 UTC NOAA

TAF
AMD KIND 252020Z 2520/2624 17012G23KT P6SM VCSH OVC011
FM252100 17010G18KT P6SM -SHRA BKN015 OVC030
TEMPO 2521/2522 3SM BR OVC008
FM252230 18010KT P6SM VCSH OVC021
FM260300 22010KT P6SM OVC008
FM260600 26010KT P6SM OVC006
FM261800 25007KT P6SM OVC010

Example: see airport list